createdAt,value
2022-12-27T00:05:21.540Z,0.50
2022-12-27T00:10:43.521Z,0.60
2022-12-27T00:16:07.942Z,0.80
2022-12-27T00:21:30.086Z,0.52
2022-12-27T00:26:51.794Z,0.70
2022-12-27T00:32:13.628Z,0.60
2022-12-27T00:37:35.344Z,0.50
2022-12-27T00:42:57.055Z,0.57
2022-12-27T00:48:18.905Z,0.60
2022-12-27T00:53:41.207Z,0.52
2022-12-27T00:59:04.909Z,0.50
2022-12-27T01:04:26.700Z,0.50
2022-12-27T01:09:48.405Z,0.50
2022-12-27T01:15:10.673Z,0.65
2022-12-27T01:20:32.414Z,0.50
2022-12-27T01:26:02.195Z,0.50
2022-12-27T01:31:28.063Z,0.70
2022-12-27T01:36:50.762Z,0.45
2022-12-27T01:42:36.324Z,0.50
2022-12-27T01:48:13.256Z,0.40
2022-12-27T01:53:41.929Z,0.60
2022-12-27T01:59:08.336Z,0.65
2022-12-27T02:04:32.269Z,0.43
2022-12-27T02:09:57.339Z,0.77
2022-12-27T02:15:19.117Z,0.50
2022-12-27T02:21:39.103Z,0.63
2022-12-27T02:27:32.973Z,0.52
2022-12-27T02:33:00.539Z,0.60
2022-12-27T02:38:36.211Z,0.50
2022-12-27T02:44:31.281Z,0.50
2022-12-27T02:50:11.713Z,0.57
2022-12-27T02:56:34.063Z,0.30
2022-12-27T03:02:43.948Z,0.60
2022-12-27T03:08:23.079Z,0.50
2022-12-27T03:14:03.355Z,0.60
2022-12-27T03:19:52.784Z,0.50
2022-12-27T03:25:29.354Z,0.57
2022-12-27T03:31:15.964Z,0.50
2022-12-27T03:36:56.195Z,0.63
2022-12-27T03:42:41.413Z,0.55
2022-12-27T03:48:06.455Z,0.40
2022-12-27T03:53:45.229Z,0.30
2022-12-27T03:59:07.889Z,0.40
2022-12-27T04:04:29.629Z,0.30
2022-12-27T04:10:09.563Z,0.40
2022-12-27T04:15:50.605Z,0.52
2022-12-27T04:21:30.568Z,0.40
2022-12-27T04:27:11.149Z,0.50
2022-12-27T04:32:51.186Z,0.50
2022-12-27T04:38:12.959Z,0.47
2022-12-27T04:43:53.497Z,0.60
2022-12-27T04:49:40.911Z,0.40
2022-12-27T04:55:12.057Z,0.50
2022-12-27T05:00:52.592Z,0.50
2022-12-27T05:06:14.608Z,0.63
2022-12-27T05:11:54.616Z,0.60
2022-12-27T05:17:16.309Z,0.60
2022-12-27T05:22:56.923Z,0.40
2022-12-27T05:28:18.639Z,0.50
2022-12-27T05:33:40.360Z,0.50
2022-12-27T05:39:02.152Z,0.45
2022-12-27T05:44:23.874Z,0.50
2022-12-27T05:49:45.593Z,0.45
2022-12-27T05:55:07.730Z,0.60
2022-12-27T06:00:29.432Z,0.30
2022-12-27T06:05:51.353Z,0.40
2022-12-27T06:11:15.338Z,0.60
2022-12-27T06:16:37.201Z,0.50
2022-12-27T06:21:59.014Z,0.40
2022-12-27T06:27:20.748Z,0.38
2022-12-27T06:32:42.470Z,0.50
2022-12-27T06:38:04.231Z,0.60
2022-12-27T06:43:26.187Z,0.60
2022-12-27T06:48:47.956Z,0.60
2022-12-27T06:54:09.870Z,0.40
2022-12-27T06:59:31.602Z,0.55
2022-12-27T07:04:53.306Z,0.70
2022-12-27T07:10:15.111Z,0.75
2022-12-27T07:15:39.056Z,0.80
2022-12-27T07:21:09.052Z,0.93
2022-12-27T07:26:31.124Z,0.80
2022-12-27T07:31:52.914Z,1.05
2022-12-27T07:37:14.701Z,0.90
2022-12-27T07:42:36.426Z,0.98
2022-12-27T07:47:58.260Z,1.13
2022-12-27T07:53:19.974Z,0.60
2022-12-27T07:58:46.983Z,0.98
2022-12-27T08:04:08.760Z,0.70
2022-12-27T08:09:34.113Z,1.10
2022-12-27T08:14:55.932Z,0.85
2022-12-27T08:20:17.680Z,0.68
2022-12-27T08:25:44.784Z,0.65
2022-12-27T08:31:12.631Z,0.80
2022-12-27T08:36:54.531Z,0.60
2022-12-27T08:42:16.094Z,0.60
2022-12-27T08:47:38.202Z,0.50
2022-12-27T08:53:01.421Z,0.70
2022-12-27T08:58:23.831Z,0.52
2022-12-27T09:03:45.583Z,0.50
2022-12-27T09:09:07.402Z,0.50
2022-12-27T09:14:29.305Z,0.50
2022-12-27T09:19:51.116Z,0.63
2022-12-27T09:25:12.932Z,0.57
2022-12-27T09:30:34.738Z,0.60
2022-12-27T09:36:08.156Z,0.50
2022-12-27T09:47:44.315Z,0.60
2022-12-27T09:53:17.711Z,0.60
2022-12-27T09:58:54.657Z,0.60
2022-12-27T10:04:19.172Z,0.52
2022-12-27T10:09:46.096Z,0.90
2022-12-27T10:15:21.145Z,0.52
2022-12-27T10:20:55.071Z,0.60
2022-12-27T10:26:19.196Z,0.55
2022-12-27T10:31:44.344Z,0.57
2022-12-27T10:37:06.155Z,0.40
2022-12-27T10:42:33.834Z,0.60
2022-12-27T10:47:58.606Z,0.50
2022-12-27T10:53:37.776Z,0.70
2022-12-27T10:59:20.417Z,0.60
2022-12-27T11:04:59.942Z,0.60
2022-12-27T11:10:24.243Z,0.60
2022-12-27T11:15:58.764Z,0.65
2022-12-27T11:21:27.571Z,0.68
2022-12-27T11:26:55.023Z,0.52
2022-12-27T11:32:16.828Z,0.98
2022-12-27T11:37:40.105Z,1.20
2022-12-27T11:43:09.457Z,1.10
2022-12-27T11:48:41.073Z,0.80
2022-12-27T11:54:43.096Z,1.05
2022-12-27T12:00:16.634Z,0.90
2022-12-27T12:06:10.711Z,0.80
2022-12-27T12:12:21.537Z,0.82
2022-12-27T12:18:13.577Z,0.90
2022-12-27T12:24:03.160Z,0.68
2022-12-27T12:29:55.302Z,0.63
2022-12-27T12:35:49.262Z,0.60
2022-12-27T12:41:44.122Z,0.70
2022-12-27T12:47:19.375Z,0.73
2022-12-27T12:53:02.628Z,0.53
2022-12-27T12:58:50.219Z,0.50
2022-12-27T13:04:39.969Z,0.40
2022-12-27T13:10:13.567Z,0.60
2022-12-27T13:15:53.587Z,0.40
2022-12-27T13:21:48.264Z,0.45
2022-12-27T13:27:10.016Z,0.32
2022-12-27T13:32:47.158Z,0.47
2022-12-27T13:38:23.970Z,0.73
2022-12-27T13:44:10.393Z,0.60
2022-12-27T13:49:49.605Z,0.52
2022-12-27T13:55:49.922Z,0.50
2022-12-27T14:01:46.246Z,0.35
2022-12-27T14:07:26.088Z,0.27
2022-12-27T14:12:58.597Z,0.40
2022-12-27T14:18:37.720Z,0.40
2022-12-27T14:24:08.423Z,0.35
2022-12-27T14:30:05.456Z,0.43
2022-12-27T14:36:04.646Z,0.40
2022-12-27T14:42:05.131Z,0.25
2022-12-27T14:47:51.475Z,0.57
2022-12-27T14:53:30.025Z,0.90
2022-12-27T14:59:21.818Z,1.17
2022-12-27T15:04:58.495Z,1.10
2022-12-27T15:10:47.957Z,1.23
2022-12-27T15:16:28.105Z,1.10
2022-12-27T15:22:18.499Z,0.98
2022-12-27T15:27:48.093Z,1.00
2022-12-27T15:33:18.677Z,0.93
2022-12-27T15:38:53.992Z,0.90
2022-12-27T15:50:00.669Z,1.20
2022-12-27T15:56:00.059Z,1.00
2022-12-27T16:01:28.809Z,0.60
2022-12-27T16:06:52.286Z,1.17
2022-12-27T16:12:37.720Z,0.90
2022-12-27T16:17:59.666Z,1.02
2022-12-27T16:23:31.421Z,1.25
2022-12-27T16:28:59.819Z,1.20
2022-12-27T16:34:21.568Z,1.58
2022-12-27T16:39:58.714Z,1.75
2022-12-27T16:45:38.992Z,1.13
2022-12-27T16:51:07.823Z,1.33
2022-12-27T16:56:32.745Z,0.80
2022-12-27T17:01:54.650Z,0.93
2022-12-27T17:07:54.067Z,1.15
2022-12-27T17:13:21.537Z,0.90
2022-12-27T17:18:48.388Z,0.98
2022-12-27T17:24:18.738Z,0.98
2022-12-27T17:29:47.900Z,0.88
2022-12-27T17:35:29.205Z,0.70
2022-12-27T17:41:47.247Z,0.90
2022-12-27T17:47:28.445Z,1.00
2022-12-27T17:53:28.973Z,1.42
2022-12-27T17:58:53.790Z,1.33
2022-12-27T18:04:31.167Z,1.27
2022-12-27T18:09:58.364Z,1.35
2022-12-27T18:15:25.554Z,1.55
2022-12-27T18:20:54.969Z,2.58
2022-12-27T18:26:16.761Z,2.90
2022-12-27T18:31:48.957Z,2.60
2022-12-27T18:37:16.825Z,1.73
2022-12-27T18:42:45.061Z,2.20
2022-12-27T18:48:12.312Z,1.40
2022-12-27T18:53:37.879Z,1.98
2022-12-27T19:04:29.064Z,3.22
2022-12-27T19:09:58.310Z,2.60
2022-12-27T19:15:28.357Z,2.20
2022-12-27T19:20:54.976Z,1.98
2022-12-27T19:26:16.631Z,3.13
2022-12-27T19:31:42.063Z,1.90
2022-12-27T19:42:31.926Z,2.13
2022-12-27T19:47:54.872Z,1.40
2022-12-27T19:53:19.761Z,1.38
2022-12-27T19:58:41.513Z,1.80
2022-12-27T20:04:03.350Z,1.52
2022-12-27T20:09:25.064Z,1.52
2022-12-27T20:14:47.663Z,1.17
2022-12-27T20:20:10.631Z,1.10
2022-12-27T20:25:33.298Z,1.15
2022-12-27T20:30:55.123Z,1.27
2022-12-27T20:36:16.865Z,1.00
2022-12-27T20:41:38.618Z,0.90
2022-12-27T20:47:00.390Z,1.17
2022-12-27T20:52:25.764Z,0.90
2022-12-27T20:57:52.494Z,1.00
2022-12-27T21:03:14.308Z,1.30
2022-12-27T21:08:44.556Z,1.38
2022-12-27T21:14:11.877Z,0.93
2022-12-27T21:19:33.648Z,0.90
2022-12-27T21:24:55.407Z,0.80
2022-12-27T21:30:17.222Z,0.88
2022-12-27T21:35:38.921Z,0.80
2022-12-27T21:41:03.613Z,1.20
2022-12-27T21:46:28.053Z,1.20
2022-12-27T21:51:50.046Z,1.20
2022-12-27T21:57:11.754Z,1.17
2022-12-27T22:02:33.538Z,1.20
2022-12-27T22:07:55.988Z,1.50
2022-12-27T22:13:17.672Z,0.88
2022-12-27T22:18:44.482Z,1.10
2022-12-27T22:24:07.065Z,1.30
2022-12-27T22:29:34.866Z,0.80
2022-12-27T22:34:57.039Z,1.23
2022-12-27T22:40:18.727Z,1.05
2022-12-27T22:45:54.060Z,0.73
2022-12-27T22:51:18.432Z,1.10
2022-12-27T22:56:42.354Z,0.85
2022-12-27T23:02:04.240Z,0.88
2022-12-27T23:08:03.480Z,0.82
2022-12-27T23:13:07.683Z,0.90
2022-12-27T23:18:30.115Z,0.85
2022-12-27T23:23:52.641Z,0.80
2022-12-27T23:29:15.497Z,0.65
2022-12-27T23:34:37.243Z,0.73
2022-12-27T23:39:59.063Z,1.02
2022-12-27T23:45:20.778Z,0.77
2022-12-27T23:50:42.856Z,0.57
2022-12-27T23:56:30.057Z,0.70
